OAKB

Details ICAO OAKB (KBL)
Name Kabul Intl
Region Afghanistan
Timezone Asia/Kabul (UTC+4.5)
Plans Departing 252
Arriving 313
Stats Elevation 5,877 ft / 1,791 m (AMSL)
Location 34.565900° 69.212300°
Runways 1
Magnetic Variation 3.233° E
Sunrise 2019-02-21 02:04:13 UTC / 2019-02-21 06:34:13 Local
Sunset 2019-02-21 13:12:24 UTC / 2019-02-21 17:42:24 Local
Advertisement - Login to hide

Runways

ID Width Length Bearing (true/mag) Surface Threshold Overrun Markings Lighting
11 164 ft / 50 m 11,483 ft / 3,500 m 107.39° / 104.16° ASPHALT 0 ft / 0 m 144 ft / 44 m PREC-APP EDGE THRESHOLD SSALF
29 164 ft / 50 m 11,483 ft / 3,500 m 287.41° / 284.18° ASPHALT 0 ft / 0 m 190 ft / 58 m PREC-APP EDGE THRESHOLD ALSF-I

Approach Navaids

Runway Type Ident Frequency Range Bearing (true/mag) Slope Elevation
29 LOC-ILS OAKB 110.50 MHz 18 nm / 33 km 287.33° / 284.09° - 5,962 ft / 1,817 m (AMSL)
29 GS OAKB 110.50 MHz 10 nm / 19 km 287.80° / 284.57° 3.85° 5,943 ft / 1,811 m (AMSL)

Map

Weather


0- 5 10 15 20 25 30 35+ Temperature / °C

Clouds and Precipitation
Forecast for 2019-02-21 12:00 UTC. Updated 6 hours ago

Ground ~20,000 ft ~40,000 ft Winds

METAR

OAKB 211515Z 08004KT 5000 FU NSC M02/M03 Q1021 RMK A3017 R1129//94 WHT

TAF

Not found

Frequencies

Ground 120.32 MHz Ground Control
Approach 133.35 MHz Bagram Approach Control
Tower 118.10 MHz Kabul Tower
Warning: Do not use this data for real-world aviation or navigation. No guarantee of current accuracy is given.